Trans Exeter — 9HA2572 — position and weather

sailwx.info

Track history (hours):
 
Tides and Currents Weather Stations Pressure Air Temp Water Temp Dewpoint Dewpoint Depression Visibility Wind Speed Wind Dir Waves Ship Positions

Trans Exeter

Last reported at 2016-Sep-25 17:25 UTC. Time now 2016-Sep-26 07:01 UTC.
Position N 36°50' W 000°46'.

Length 118 m; draft 6.7 m.

Type: Ship (hazmat cat C). MMSI: 248908000.

Date/timePositionNaut miles runAvg speedWind from/ knotsBaromVisibWave heightAir tempDewpointWater temp
2016-Sep-25 17:25N 36°50' W 000°46'69514.2
2016-Sep-23 16:33N 36°59' E 013°43'1414.1
2016-Sep-23 15:34N 36°52' E 013°58'2914.3
2016-Sep-23 13:34N 36°39' E 014°30'  
2016-Sep-20 17:22N 33°03' E 033°49'4014.3
2016-Sep-20 14:33N 32°56' E 034°36'62 1.3
2016-Sep-18 15:33N 33°26' E 033°31'1514.6
2016-Sep-18 14:33N 33°32' E 033°15'5914.7
2016-Sep-18 10:33N 33°57' E 032°11'1414.3
2016-Sep-18 09:33N 34°03' E 031°55'35214.5
2016-Sep-17 09:17N 37°15' E 025°52'2615.1
2016-Sep-17 07:34N 37°39' E 025°40'  
Track history (hours):
 
Tides and Currents Weather Stations Pressure Air Temp Water Temp Dewpoint Dewpoint Depression Visibility Wind Speed Wind Dir Waves Ship Positions

Trans Exeter

Last reported at 2016-Sep-25 17:25 UTC. Time now 2016-Sep-26 07:01 UTC.
Position N 36°50' W 000°46'.

Length 118 m; draft 6.7 m.

Type: Ship (hazmat cat C). MMSI: 248908000.

Date/timePositionNaut miles runAvg speedWind from/ knotsBaromVisibWave heightAir tempDewpointWater temp
2016-Sep-25 17:25N 36°50' W 000°46'69514.2
2016-Sep-23 16:33N 36°59' E 013°43'1414.1
2016-Sep-23 15:34N 36°52' E 013°58'2914.3
2016-Sep-23 13:34N 36°39' E 014°30'  
2016-Sep-20 17:22N 33°03' E 033°49'4014.3
2016-Sep-20 14:33N 32°56' E 034°36'62 1.3
2016-Sep-18 15:33N 33°26' E 033°31'1514.6
2016-Sep-18 14:33N 33°32' E 033°15'5914.7
2016-Sep-18 10:33N 33°57' E 032°11'1414.3
2016-Sep-18 09:33N 34°03' E 031°55'35214.5
2016-Sep-17 09:17N 37°15' E 025°52'2615.1
2016-Sep-17 07:34N 37°39' E 025°40'  

Dump ship's entire track history